createdAt,value
2023-01-17T00:00:13.350Z,981.49
2023-01-17T00:01:13.552Z,981.58
2023-01-17T00:02:13.486Z,981.61
2023-01-17T00:03:13.451Z,981.58
2023-01-17T00:04:14.025Z,981.66
2023-01-17T00:05:13.267Z,981.70
2023-01-17T00:06:13.493Z,981.60
2023-01-17T00:07:13.709Z,981.68
2023-01-17T00:08:13.887Z,981.59
2023-01-17T00:09:13.939Z,981.57
2023-01-17T00:10:12.836Z,981.62
2023-01-17T00:11:13.960Z,981.53
2023-01-17T00:12:13.200Z,981.65
2023-01-17T00:13:13.304Z,981.60
2023-01-17T00:14:13.312Z,981.60
2023-01-17T00:15:13.360Z,981.57
2023-01-17T00:16:13.513Z,981.64
2023-01-17T00:17:13.930Z,981.63
2023-01-17T00:18:12.788Z,981.71
2023-01-17T00:19:13.846Z,981.58
2023-01-17T00:20:14.007Z,981.60
2023-01-17T00:21:13.215Z,981.62
2023-01-17T00:22:13.688Z,981.62
2023-01-17T00:23:13.928Z,981.74
2023-01-17T00:24:12.906Z,981.64
2023-01-17T00:25:12.881Z,981.64
2023-01-17T00:26:14.190Z,981.73
2023-01-17T00:27:13.454Z,981.75
2023-01-17T00:28:13.709Z,981.78
2023-01-17T00:29:13.752Z,981.78
2023-01-17T00:30:13.839Z,981.85
2023-01-17T00:31:13.886Z,981.73
2023-01-17T00:32:12.898Z,981.74
2023-01-17T00:33:12.983Z,981.83
2023-01-17T00:34:12.999Z,981.85
2023-01-17T00:35:13.217Z,981.81
2023-01-17T00:36:13.386Z,981.85
2023-01-17T00:37:13.711Z,981.83
2023-01-17T00:38:14.204Z,981.89
2023-01-17T00:39:13.171Z,981.91
2023-01-17T00:40:13.197Z,981.93
2023-01-17T00:41:13.081Z,981.94
2023-01-17T00:42:13.336Z,982.06
2023-01-17T00:43:13.424Z,981.93
2023-01-17T00:44:13.575Z,981.97
2023-01-17T00:45:13.584Z,981.83
2023-01-17T00:46:13.620Z,982.09
2023-01-17T00:47:13.614Z,982.03
2023-01-17T00:48:19.726Z,982.06
2023-01-17T00:49:14.029Z,982.09
2023-01-17T00:50:13.179Z,982.09
2023-01-17T00:51:13.579Z,982.11
2023-01-17T00:52:13.490Z,982.13
2023-01-17T00:53:13.504Z,982.12
2023-01-17T00:54:13.584Z,982.23
2023-01-17T00:55:13.650Z,982.23
2023-01-17T00:56:14.012Z,982.16
2023-01-17T00:57:12.980Z,982.24
2023-01-17T00:58:12.998Z,982.25
2023-01-17T00:59:12.946Z,982.25
2023-01-17T01:00:13.012Z,982.28
2023-01-17T01:01:13.245Z,982.27
2023-01-17T01:02:13.238Z,982.30
2023-01-17T01:03:18.545Z,982.31
2023-01-17T01:04:14.856Z,982.32
2023-01-17T01:05:13.961Z,982.33
2023-01-17T01:06:13.431Z,982.30
2023-01-17T01:07:13.495Z,982.33
2023-01-17T01:08:13.292Z,982.40
2023-01-17T01:09:13.640Z,982.36
2023-01-17T01:10:13.717Z,982.40
2023-01-17T01:11:14.121Z,982.41
2023-01-17T01:12:14.727Z,982.45
2023-01-17T01:13:14.229Z,982.44
2023-01-17T01:14:18.389Z,982.41
2023-01-17T01:15:13.373Z,982.47
2023-01-17T01:16:13.321Z,982.53
2023-01-17T01:17:13.940Z,982.51
2023-01-17T01:18:13.493Z,982.53
2023-01-17T01:19:13.643Z,982.50
2023-01-17T01:20:13.747Z,982.54
2023-01-17T01:21:13.831Z,982.53
2023-01-17T01:22:13.825Z,982.38
2023-01-17T01:23:13.715Z,982.49
2023-01-17T01:24:14.081Z,982.56
2023-01-17T01:25:13.443Z,982.57
2023-01-17T01:26:14.463Z,982.71
2023-01-17T01:27:14.029Z,982.63
2023-01-17T01:28:13.544Z,982.74
2023-01-17T01:29:13.590Z,982.66
2023-01-17T01:30:13.519Z,982.74
2023-01-17T01:31:14.490Z,982.72
2023-01-17T01:32:13.493Z,982.76
2023-01-17T01:33:13.704Z,982.77
2023-01-17T01:34:13.829Z,982.79
2023-01-17T01:35:13.757Z,982.78
2023-01-17T01:36:13.791Z,982.78
2023-01-17T01:37:13.902Z,982.90
2023-01-17T01:38:12.844Z,982.82
2023-01-17T01:39:14.179Z,982.90
2023-01-17T01:40:13.201Z,982.89
2023-01-17T01:41:13.245Z,983.01
2023-01-17T01:42:13.193Z,982.94
2023-01-17T01:43:13.187Z,983.11
2023-01-17T01:44:13.228Z,983.07
2023-01-17T01:45:38.623Z,983.07
2023-01-17T01:46:18.867Z,983.04
2023-01-17T01:47:13.925Z,983.13
2023-01-17T01:48:13.087Z,983.13
2023-01-17T01:49:13.399Z,983.11
2023-01-17T01:50:23.449Z,983.14
2023-01-17T01:51:13.605Z,983.17
2023-01-17T01:52:32.643Z,983.17
2023-01-17T01:53:13.672Z,983.16
2023-01-17T01:54:13.776Z,983.16
2023-01-17T01:55:19.484Z,983.22
2023-01-17T01:56:19.722Z,983.32
2023-01-17T01:57:12.848Z,983.27
2023-01-17T01:58:14.289Z,983.38
2023-01-17T01:59:18.795Z,983.25
2023-01-17T02:00:14.015Z,983.31
2023-01-17T02:01:13.549Z,983.39
2023-01-17T02:02:13.753Z,983.26
2023-01-17T02:03:13.920Z,983.36
2023-01-17T02:04:13.119Z,983.47
2023-01-17T02:05:13.065Z,983.46
2023-01-17T02:06:13.026Z,983.48
2023-01-17T02:07:13.316Z,983.57
2023-01-17T02:08:13.453Z,983.57
2023-01-17T02:09:13.573Z,983.50
2023-01-17T02:10:13.511Z,983.57
2023-01-17T02:11:13.475Z,983.53
2023-01-17T02:12:13.797Z,983.54
2023-01-17T02:13:13.669Z,983.55
2023-01-17T02:14:13.595Z,983.57
2023-01-17T02:15:13.578Z,983.62
2023-01-17T02:16:13.550Z,983.66
2023-01-17T02:17:13.502Z,983.63
2023-01-17T02:18:13.811Z,983.74
2023-01-17T02:19:13.722Z,983.75
2023-01-17T02:20:14.215Z,983.77
2023-01-17T02:21:13.188Z,983.85
2023-01-17T02:22:13.202Z,983.88
2023-01-17T02:23:13.411Z,983.74
2023-01-17T02:24:13.702Z,983.92
2023-01-17T02:25:13.593Z,983.81
2023-01-17T02:26:13.496Z,983.80
2023-01-17T02:27:13.711Z,983.90
2023-01-17T02:28:13.661Z,983.95
2023-01-17T02:29:14.013Z,984.08
2023-01-17T02:30:13.002Z,984.02
2023-01-17T02:31:13.571Z,984.04
2023-01-17T02:32:13.618Z,984.02
2023-01-17T02:33:13.711Z,984.08
2023-01-17T02:34:13.633Z,984.03
2023-01-17T02:35:13.839Z,984.01
2023-01-17T02:36:14.258Z,984.03
2023-01-17T02:37:13.176Z,984.06
2023-01-17T02:38:13.112Z,984.08
2023-01-17T02:39:13.062Z,984.10
2023-01-17T02:40:12.998Z,984.10
2023-01-17T02:41:13.072Z,984.16
2023-01-17T02:42:12.937Z,984.08
2023-01-17T02:43:13.217Z,984.13
2023-01-17T02:44:13.135Z,984.15
2023-01-17T02:45:13.009Z,984.15
2023-01-17T02:46:13.270Z,984.10
2023-01-17T02:47:13.436Z,984.19
2023-01-17T02:48:13.294Z,984.26
2023-01-17T02:49:13.524Z,984.25
2023-01-17T02:50:13.509Z,984.18
2023-01-17T02:51:13.727Z,984.26
2023-01-17T02:52:13.815Z,984.27
2023-01-17T02:53:13.814Z,984.23
2023-01-17T02:54:14.065Z,984.33
2023-01-17T02:55:13.095Z,984.39
2023-01-17T02:56:13.004Z,984.35
2023-01-17T02:57:12.987Z,984.37
2023-01-17T02:58:12.853Z,984.37
2023-01-17T02:59:14.074Z,984.41
2023-01-17T03:00:12.988Z,984.36
2023-01-17T03:01:13.380Z,984.45
2023-01-17T03:02:13.962Z,984.56
2023-01-17T03:03:13.088Z,984.56
2023-01-17T03:04:13.001Z,984.53
2023-01-17T03:05:12.995Z,984.57
2023-01-17T03:06:13.155Z,984.59
2023-01-17T03:07:13.028Z,984.64
2023-01-17T03:08:13.043Z,984.78
2023-01-17T03:09:12.992Z,984.68
2023-01-17T03:10:12.883Z,984.85
2023-01-17T03:11:13.960Z,984.68
2023-01-17T03:12:12.928Z,984.68
2023-01-17T03:13:12.812Z,984.76
2023-01-17T03:14:13.769Z,984.68
2023-01-17T03:15:13.678Z,984.75
2023-01-17T03:16:13.635Z,984.74
2023-01-17T03:17:13.604Z,984.76
2023-01-17T03:18:13.533Z,984.78
2023-01-17T03:19:13.371Z,984.71
2023-01-17T03:20:13.408Z,984.84
2023-01-17T03:21:13.491Z,984.79
2023-01-17T03:22:13.528Z,984.85
2023-01-17T03:23:13.585Z,984.85
2023-01-17T03:24:13.576Z,984.86
2023-01-17T03:25:13.553Z,984.86
2023-01-17T03:26:13.698Z,984.86
2023-01-17T03:27:14.342Z,984.88
2023-01-17T03:28:13.448Z,984.91
2023-01-17T03:29:13.782Z,984.94
2023-01-17T03:30:13.779Z,984.97
2023-01-17T03:31:13.714Z,985.11
2023-01-17T03:32:13.865Z,985.10
2023-01-17T03:33:13.856Z,985.03
2023-01-17T03:34:14.188Z,984.95
2023-01-17T03:35:13.122Z,985.03
2023-01-17T03:36:13.097Z,985.12
2023-01-17T03:37:13.305Z,985.06
2023-01-17T03:38:13.447Z,985.09
2023-01-17T03:39:13.439Z,985.09
2023-01-17T03:40:13.549Z,985.13
2023-01-17T03:41:13.750Z,985.21
2023-01-17T03:42:13.977Z,985.19
2023-01-17T03:43:13.290Z,985.18
2023-01-17T03:44:13.259Z,985.25
2023-01-17T03:45:13.108Z,985.19
2023-01-17T03:46:13.470Z,985.30
2023-01-17T03:47:13.767Z,985.28
2023-01-17T03:48:13.833Z,985.31
2023-01-17T03:49:14.085Z,985.15
2023-01-17T03:50:13.123Z,985.31
2023-01-17T03:51:13.276Z,985.34
2023-01-17T03:52:13.218Z,985.38
2023-01-17T03:53:13.557Z,985.37
2023-01-17T03:54:13.484Z,985.47
2023-01-17T03:55:13.530Z,985.50
2023-01-17T03:56:13.654Z,985.49
2023-01-17T03:57:13.833Z,985.55
2023-01-17T03:58:13.831Z,985.46
2023-01-17T03:59:13.996Z,985.54
2023-01-17T04:00:13.020Z,985.50
2023-01-17T04:01:13.039Z,985.55
2023-01-17T04:02:13.114Z,985.51
2023-01-17T04:03:13.095Z,985.52
2023-01-17T04:04:12.970Z,985.54
2023-01-17T04:05:13.007Z,985.53
2023-01-17T04:06:12.985Z,985.58
2023-01-17T04:07:12.948Z,985.55
2023-01-17T04:08:13.251Z,985.59
2023-01-17T04:09:13.269Z,985.60
2023-01-17T04:10:13.236Z,985.59
2023-01-17T04:11:13.434Z,985.59
2023-01-17T04:12:13.422Z,985.63
2023-01-17T04:13:13.528Z,985.65
2023-01-17T04:14:13.824Z,985.62
2023-01-17T04:15:14.466Z,985.68
2023-01-17T04:16:18.850Z,985.67
2023-01-17T04:17:12.946Z,985.56
2023-01-17T04:18:13.181Z,985.66
2023-01-17T04:19:13.125Z,985.65
2023-01-17T04:20:13.172Z,985.61
2023-01-17T04:21:13.307Z,985.63
2023-01-17T04:22:13.271Z,985.62
2023-01-17T04:23:13.430Z,985.64
2023-01-17T04:24:13.544Z,985.61
2023-01-17T04:25:13.488Z,985.61
2023-01-17T04:26:13.806Z,985.64
2023-01-17T04:27:13.687Z,985.57
2023-01-17T04:28:13.750Z,985.60
2023-01-17T04:29:13.625Z,985.58
2023-01-17T04:30:13.844Z,985.58
2023-01-17T04:31:13.895Z,985.59
2023-01-17T04:32:12.938Z,985.63
2023-01-17T04:33:12.950Z,985.62
2023-01-17T04:34:13.200Z,985.69
2023-01-17T04:35:13.352Z,985.64
2023-01-17T04:36:13.301Z,985.67
2023-01-17T04:37:13.470Z,985.66
2023-01-17T04:38:13.466Z,985.67
2023-01-17T04:39:13.386Z,985.69
2023-01-17T04:40:13.351Z,985.69
2023-01-17T04:41:13.594Z,985.70
2023-01-17T04:42:13.607Z,985.74
2023-01-17T04:43:13.594Z,985.77
2023-01-17T04:44:13.632Z,985.80
2023-01-17T04:45:13.589Z,985.77
2023-01-17T04:46:13.732Z,985.78
2023-01-17T04:47:13.681Z,985.78
2023-01-17T04:48:13.673Z,985.83
2023-01-17T04:49:13.681Z,985.91
2023-01-17T04:50:13.676Z,985.82
2023-01-17T04:51:13.601Z,985.88
2023-01-17T04:52:13.742Z,985.91
2023-01-17T04:53:13.685Z,985.88
2023-01-17T04:54:13.651Z,985.87
2023-01-17T04:55:13.636Z,985.93
2023-01-17T04:56:13.565Z,985.92
2023-01-17T04:57:14.792Z,985.91
2023-01-17T04:58:13.729Z,985.89
2023-01-17T04:59:14.946Z,985.91
2023-01-17T05:00:13.387Z,985.91
2023-01-17T05:01:13.587Z,985.92
2023-01-17T05:02:13.935Z,985.96
2023-01-17T05:03:12.925Z,985.94
2023-01-17T05:04:12.865Z,985.89
2023-01-17T05:05:13.920Z,985.91
2023-01-17T05:06:12.988Z,985.94
2023-01-17T05:07:13.123Z,985.90
2023-01-17T05:08:13.258Z,985.90
2023-01-17T05:09:13.212Z,985.84
2023-01-17T05:10:13.249Z,985.91
2023-01-17T05:11:13.375Z,985.91
2023-01-17T05:12:13.602Z,985.92
2023-01-17T05:13:13.907Z,985.92
2023-01-17T05:14:12.964Z,985.93
2023-01-17T05:15:13.086Z,985.94
2023-01-17T05:16:13.057Z,985.96
2023-01-17T05:17:13.008Z,985.96
2023-01-17T05:18:13.075Z,985.98
2023-01-17T05:19:13.117Z,986.02
2023-01-17T05:20:13.132Z,985.94
2023-01-17T05:21:13.151Z,986.11
2023-01-17T05:22:13.158Z,986.03
2023-01-17T05:23:13.209Z,986.06
2023-01-17T05:24:13.098Z,986.07
2023-01-17T05:25:13.115Z,986.12
2023-01-17T05:26:13.226Z,986.10
2023-01-17T05:27:13.630Z,986.16
2023-01-17T05:28:13.756Z,986.16
2023-01-17T05:29:13.943Z,986.11
2023-01-17T05:30:13.280Z,986.15
2023-01-17T05:31:13.654Z,986.17
2023-01-17T05:32:13.839Z,986.21
2023-01-17T05:33:14.115Z,986.16
2023-01-17T05:34:31.344Z,986.22
2023-01-17T05:35:13.600Z,986.25
2023-01-17T05:36:13.982Z,986.28
2023-01-17T05:37:13.351Z,986.21
2023-01-17T05:38:20.605Z,986.23
2023-01-17T05:39:13.904Z,986.31
2023-01-17T05:40:17.985Z,986.28
2023-01-17T05:41:15.942Z,986.30
2023-01-17T05:42:13.003Z,986.32
2023-01-17T05:43:13.336Z,986.32
2023-01-17T05:44:13.686Z,986.31
2023-01-17T05:45:18.918Z,986.35
2023-01-17T05:46:18.214Z,986.39
2023-01-17T05:47:13.561Z,986.38
2023-01-17T05:48:13.647Z,986.37
2023-01-17T05:49:14.263Z,986.39
2023-01-17T05:50:13.382Z,986.41
2023-01-17T05:51:13.487Z,986.47
2023-01-17T05:52:13.539Z,986.47
2023-01-17T05:53:13.923Z,986.45
2023-01-17T05:54:18.297Z,986.47
2023-01-17T05:55:13.715Z,986.48
2023-01-17T05:56:13.881Z,986.48
2023-01-17T05:57:13.995Z,986.52
2023-01-17T05:58:14.079Z,986.56
2023-01-17T06:00:07.605Z,986.54
2023-01-17T06:00:14.208Z,986.55
2023-01-17T06:01:13.282Z,986.59
2023-01-17T06:02:13.309Z,986.59
2023-01-17T06:03:13.664Z,986.61
2023-01-17T06:04:13.700Z,986.64
2023-01-17T06:05:13.743Z,986.73
2023-01-17T06:06:27.814Z,986.69
2023-01-17T06:07:20.011Z,986.70
2023-01-17T06:08:13.329Z,986.65
2023-01-17T06:09:13.249Z,986.65
2023-01-17T06:10:13.222Z,986.68
2023-01-17T06:11:13.355Z,986.67
2023-01-17T06:12:13.339Z,986.72
2023-01-17T06:13:13.397Z,986.74
2023-01-17T06:14:13.393Z,986.79
2023-01-17T06:15:13.272Z,986.82
2023-01-17T06:16:13.447Z,986.80
2023-01-17T06:17:13.632Z,986.79
2023-01-17T06:18:13.622Z,986.81
2023-01-17T06:19:13.605Z,986.80
2023-01-17T06:20:14.008Z,986.74
2023-01-17T06:21:13.306Z,986.73
2023-01-17T06:22:13.369Z,986.73
2023-01-17T06:23:13.736Z,986.77
2023-01-17T06:24:13.723Z,986.71
2023-01-17T06:25:13.862Z,986.74
2023-01-17T06:26:13.800Z,986.71
2023-01-17T06:27:13.710Z,986.77
2023-01-17T06:28:18.928Z,986.77
2023-01-17T06:29:13.165Z,986.85
2023-01-17T06:30:13.351Z,986.80
2023-01-17T06:31:13.731Z,986.85
2023-01-17T06:32:13.754Z,986.88
2023-01-17T06:33:14.088Z,986.92
2023-01-17T06:34:13.201Z,986.94
2023-01-17T06:35:13.274Z,986.94
2023-01-17T06:36:13.600Z,986.89
2023-01-17T06:37:13.811Z,986.96
2023-01-17T06:38:13.914Z,986.98
2023-01-17T06:39:14.988Z,986.94
2023-01-17T06:40:13.574Z,987.00
2023-01-17T06:41:13.745Z,987.02
2023-01-17T06:42:13.816Z,987.03
2023-01-17T06:43:13.734Z,987.01
2023-01-17T06:44:14.082Z,987.04
2023-01-17T06:45:13.067Z,987.01
2023-01-17T06:46:13.348Z,987.07
2023-01-17T06:47:13.290Z,987.07
2023-01-17T06:48:13.305Z,987.15
2023-01-17T06:49:13.481Z,987.13
2023-01-17T06:50:13.602Z,987.17
2023-01-17T06:51:14.073Z,987.20
2023-01-17T06:52:13.369Z,987.18
2023-01-17T06:53:13.481Z,987.18
2023-01-17T06:54:13.543Z,987.25
2023-01-17T06:55:13.420Z,987.28
2023-01-17T06:56:13.323Z,987.31
2023-01-17T06:57:13.461Z,987.30
2023-01-17T06:58:13.774Z,987.33
2023-01-17T06:59:13.690Z,987.33
2023-01-17T07:00:13.729Z,987.33
2023-01-17T07:01:13.782Z,987.35
2023-01-17T07:02:13.292Z,987.29
2023-01-17T07:03:13.608Z,987.30
2023-01-17T07:04:13.815Z,987.26
2023-01-17T07:05:13.992Z,987.32
2023-01-17T07:06:12.840Z,987.27
2023-01-17T07:07:13.783Z,987.29
2023-01-17T07:08:13.675Z,987.31
2023-01-17T07:09:14.027Z,987.28
2023-01-17T07:10:13.123Z,987.29
2023-01-17T07:11:13.030Z,987.29
2023-01-17T07:12:12.962Z,987.29
2023-01-17T07:13:13.244Z,987.27
2023-01-17T07:14:13.451Z,987.26
2023-01-17T07:15:13.590Z,987.30
2023-01-17T07:16:13.615Z,987.30
2023-01-17T07:17:13.775Z,987.31
2023-01-17T07:18:14.094Z,987.33
2023-01-17T07:19:13.511Z,987.24
2023-01-17T07:20:13.658Z,987.30
2023-01-17T07:21:13.737Z,987.31
2023-01-17T07:22:13.793Z,987.31
2023-01-17T07:23:14.155Z,987.34
2023-01-17T07:24:13.104Z,987.32
2023-01-17T07:25:12.992Z,987.33
2023-01-17T07:26:12.858Z,987.38
2023-01-17T07:27:13.740Z,987.41
2023-01-17T07:28:13.666Z,987.36
2023-01-17T07:29:13.492Z,987.37
2023-01-17T07:30:13.613Z,987.38
2023-01-17T07:31:13.707Z,987.37
2023-01-17T07:32:15.118Z,987.37
2023-01-17T07:33:13.005Z,987.36
2023-01-17T07:34:13.013Z,987.42
2023-01-17T07:35:13.087Z,987.42
2023-01-17T07:36:13.215Z,987.43
2023-01-17T07:37:15.202Z,987.48
2023-01-17T07:38:13.452Z,987.43
2023-01-17T07:39:13.341Z,987.45
2023-01-17T07:40:13.441Z,987.45
2023-01-17T07:41:13.779Z,987.45
2023-01-17T07:42:14.105Z,987.51
2023-01-17T07:43:13.262Z,987.49
2023-01-17T07:44:13.240Z,987.51
2023-01-17T07:45:13.647Z,987.49
2023-01-17T07:46:13.819Z,987.50
2023-01-17T07:47:13.818Z,987.46
2023-01-17T07:48:14.076Z,987.49
2023-01-17T07:49:13.012Z,987.53
2023-01-17T07:50:12.961Z,987.46
2023-01-17T07:51:13.012Z,987.48
2023-01-17T07:52:12.919Z,987.47
2023-01-17T07:53:13.049Z,987.46
2023-01-17T07:54:13.151Z,987.47
2023-01-17T07:55:13.238Z,987.44
2023-01-17T07:56:13.258Z,987.50
2023-01-17T07:57:13.211Z,987.48
2023-01-17T07:58:13.269Z,987.51
2023-01-17T07:59:13.226Z,987.47
2023-01-17T08:00:13.322Z,987.47
2023-01-17T08:01:13.532Z,987.45
2023-01-17T08:02:13.529Z,987.46
2023-01-17T08:03:13.562Z,987.45
2023-01-17T08:04:13.594Z,987.46
2023-01-17T08:05:13.510Z,987.48
2023-01-17T08:06:13.443Z,987.42
2023-01-17T08:07:13.350Z,987.51
2023-01-17T08:08:13.291Z,987.49
2023-01-17T08:09:13.299Z,987.46
2023-01-17T08:10:13.217Z,987.47
2023-01-17T08:11:13.252Z,987.46
2023-01-17T08:12:13.331Z,987.44
2023-01-17T08:13:13.257Z,987.47
2023-01-17T08:14:13.595Z,987.48
2023-01-17T08:15:13.519Z,987.46
2023-01-17T08:16:13.474Z,987.48
2023-01-17T08:17:13.404Z,987.49
2023-01-17T08:18:13.491Z,987.48
2023-01-17T08:19:13.423Z,987.48
2023-01-17T08:20:13.523Z,987.48
2023-01-17T08:21:13.627Z,987.51
2023-01-17T08:22:13.539Z,987.49
2023-01-17T08:23:13.512Z,987.51
2023-01-17T08:24:13.616Z,987.52
2023-01-17T08:25:13.664Z,987.54
2023-01-17T08:26:13.758Z,987.54
2023-01-17T08:27:14.180Z,987.50
2023-01-17T08:28:13.387Z,987.48
2023-01-17T08:29:13.693Z,987.45
2023-01-17T08:30:13.529Z,987.49
2023-01-17T08:31:13.478Z,987.47
2023-01-17T08:32:13.560Z,987.47
2023-01-17T08:33:13.889Z,987.45
2023-01-17T08:34:14.014Z,987.50
2023-01-17T08:35:12.978Z,987.46
2023-01-17T08:36:12.927Z,987.47
2023-01-17T08:37:12.776Z,987.43
2023-01-17T08:38:13.963Z,987.47
2023-01-17T08:39:13.052Z,987.42
2023-01-17T08:40:13.026Z,987.41
2023-01-17T08:41:12.931Z,987.44
2023-01-17T08:42:13.069Z,987.41
2023-01-17T08:43:13.054Z,987.44
2023-01-17T08:44:13.228Z,987.45
2023-01-17T08:45:13.164Z,987.45
2023-01-17T08:46:13.497Z,987.49
2023-01-17T08:47:13.545Z,987.52
2023-01-17T08:48:13.542Z,987.55
2023-01-17T08:49:13.453Z,987.54
2023-01-17T08:50:13.536Z,987.52
2023-01-17T08:51:13.718Z,987.54
2023-01-17T08:52:13.709Z,987.56
2023-01-17T08:53:13.870Z,987.56
2023-01-17T08:54:13.117Z,987.61
2023-01-17T08:55:13.047Z,987.63
2023-01-17T08:56:13.345Z,987.67
2023-01-17T08:57:13.449Z,987.64
2023-01-17T08:58:13.547Z,987.61
2023-01-17T08:59:13.468Z,987.66
2023-01-17T09:00:13.387Z,987.69
2023-01-17T09:01:13.309Z,987.64
2023-01-17T09:02:13.335Z,987.73
2023-01-17T09:03:13.489Z,987.71
2023-01-17T09:04:13.886Z,987.70
2023-01-17T09:05:13.074Z,987.73
2023-01-17T09:06:12.885Z,987.74
2023-01-17T09:07:13.979Z,987.69
2023-01-17T09:08:13.184Z,987.69
2023-01-17T09:09:13.177Z,987.67
2023-01-17T09:10:13.176Z,987.67
2023-01-17T09:11:13.649Z,987.69
2023-01-17T09:12:13.765Z,987.68
2023-01-17T09:13:13.963Z,987.68
2023-01-17T09:14:12.937Z,987.66
2023-01-17T09:15:12.913Z,987.70
2023-01-17T09:16:13.040Z,987.66
2023-01-17T09:17:14.546Z,987.67
2023-01-17T09:18:14.028Z,987.68
2023-01-17T09:19:13.082Z,987.62
2023-01-17T09:20:13.228Z,987.69
2023-01-17T09:21:13.440Z,987.66
2023-01-17T09:22:13.411Z,987.66
2023-01-17T09:23:13.580Z,987.63
2023-01-17T09:24:13.583Z,987.68
2023-01-17T09:25:13.568Z,987.69
2023-01-17T09:26:13.462Z,987.68
2023-01-17T09:27:13.474Z,987.70
2023-01-17T09:28:13.954Z,987.69
2023-01-17T09:29:13.177Z,987.72
2023-01-17T09:30:13.377Z,987.76
2023-01-17T09:31:14.722Z,987.77
2023-01-17T09:32:12.956Z,987.76
2023-01-17T09:33:13.112Z,987.78
2023-01-17T09:34:13.213Z,987.76
2023-01-17T09:35:13.375Z,987.79
2023-01-17T09:36:13.590Z,987.81
2023-01-17T09:37:13.815Z,987.83
2023-01-17T09:38:13.907Z,987.80
2023-01-17T09:40:12.982Z,987.84
2023-01-17T09:41:13.281Z,987.84
2023-01-17T09:42:13.135Z,987.86
2023-01-17T09:43:13.016Z,987.86
2023-01-17T09:44:13.077Z,987.86
2023-01-17T09:45:13.030Z,987.86
2023-01-17T09:46:13.364Z,987.86
2023-01-17T09:47:14.016Z,987.85
2023-01-17T09:48:13.439Z,987.85
2023-01-17T09:49:13.660Z,987.83
2023-01-17T09:50:13.667Z,987.85
2023-01-17T09:51:14.128Z,987.86
2023-01-17T09:52:18.455Z,987.83
2023-01-17T09:53:13.479Z,987.90
2023-01-17T09:54:13.375Z,987.90
2023-01-17T09:55:13.588Z,987.92
2023-01-17T09:56:13.683Z,987.93
2023-01-17T09:57:13.779Z,987.90
2023-01-17T09:58:14.127Z,987.94
2023-01-17T09:59:16.835Z,987.93
2023-01-17T10:00:13.525Z,987.93
2023-01-17T10:01:13.798Z,987.94
2023-01-17T10:02:14.255Z,987.99
2023-01-17T10:03:13.776Z,987.97
2023-01-17T10:04:14.162Z,988.00
2023-01-17T10:05:13.300Z,987.97
2023-01-17T10:06:13.237Z,987.97
2023-01-17T10:07:13.163Z,988.05
2023-01-17T10:08:13.129Z,988.05
2023-01-17T10:09:12.988Z,988.05
2023-01-17T10:10:12.968Z,988.01
2023-01-17T10:11:12.829Z,988.06
2023-01-17T10:12:14.195Z,988.06
2023-01-17T10:13:13.144Z,988.07
2023-01-17T10:14:13.190Z,988.04
2023-01-17T10:15:13.196Z,988.10
2023-01-17T10:16:13.203Z,988.02
2023-01-17T10:17:13.129Z,988.09
2023-01-17T10:18:28.814Z,988.03
2023-01-17T10:19:13.787Z,988.06
2023-01-17T10:20:13.747Z,988.03
2023-01-17T10:21:13.700Z,988.00
2023-01-17T10:22:14.075Z,988.02
2023-01-17T10:23:13.403Z,988.01
2023-01-17T10:24:13.458Z,988.03
2023-01-17T10:25:13.653Z,988.00
2023-01-17T10:26:13.705Z,988.00
2023-01-17T10:27:13.641Z,987.98
2023-01-17T10:28:13.545Z,987.97
2023-01-17T10:29:13.609Z,987.98
2023-01-17T10:30:13.711Z,988.00
2023-01-17T10:31:13.657Z,988.03
2023-01-17T10:32:13.684Z,987.98
2023-01-17T10:33:13.792Z,988.00
2023-01-17T10:34:14.177Z,987.99
2023-01-17T10:35:14.875Z,987.96
2023-01-17T10:36:13.088Z,987.94
2023-01-17T10:37:13.196Z,987.96
2023-01-17T10:38:13.598Z,987.97
2023-01-17T10:39:13.929Z,987.97
2023-01-17T10:40:13.490Z,987.94
2023-01-17T10:41:13.530Z,987.95
2023-01-17T10:42:13.658Z,987.94
2023-01-17T10:43:13.770Z,987.91
2023-01-17T10:44:13.952Z,987.94
2023-01-17T10:45:13.013Z,987.88
2023-01-17T10:46:13.054Z,987.92
2023-01-17T10:47:13.271Z,987.92
2023-01-17T10:48:13.693Z,987.86
2023-01-17T10:49:13.627Z,987.85
2023-01-17T10:50:14.046Z,987.93
2023-01-17T10:51:12.949Z,987.86
2023-01-17T10:52:13.337Z,987.85
2023-01-17T10:53:13.252Z,987.88
2023-01-17T10:54:13.169Z,987.88
2023-01-17T10:55:13.282Z,987.92
2023-01-17T10:56:13.391Z,987.93
2023-01-17T10:57:13.501Z,987.96
2023-01-17T10:58:13.520Z,987.98
2023-01-17T10:59:13.841Z,987.94
2023-01-17T11:00:13.755Z,987.95
2023-01-17T11:01:14.139Z,987.95
2023-01-17T11:02:13.391Z,987.96
2023-01-17T11:03:13.677Z,987.98
2023-01-17T11:04:13.981Z,987.94
2023-01-17T11:05:12.910Z,987.96
2023-01-17T11:06:12.871Z,987.96
2023-01-17T11:07:14.072Z,987.90
2023-01-17T11:08:13.068Z,987.89
2023-01-17T11:09:17.247Z,987.88
2023-01-17T11:10:13.550Z,987.89
2023-01-17T11:11:13.869Z,987.92
2023-01-17T11:12:13.882Z,987.87
2023-01-17T11:13:14.320Z,987.87
2023-01-17T11:14:13.842Z,987.87
2023-01-17T11:15:13.909Z,987.89
2023-01-17T11:16:13.243Z,987.86
2023-01-17T11:17:13.234Z,987.85
2023-01-17T11:18:13.457Z,987.86
2023-01-17T11:19:13.591Z,987.85
2023-01-17T11:20:13.761Z,987.85
2023-01-17T11:22:13.503Z,987.91
2023-01-17T11:23:13.749Z,987.89
2023-01-17T11:24:14.964Z,987.85
2023-01-17T11:25:12.981Z,987.82
2023-01-17T11:26:43.961Z,987.85
2023-01-17T11:27:13.683Z,987.82
2023-01-17T11:28:13.579Z,987.83
2023-01-17T11:29:13.624Z,987.82
2023-01-17T11:30:13.532Z,987.85
2023-01-17T11:32:13.189Z,987.77
2023-01-17T11:33:13.349Z,987.75
2023-01-17T11:34:13.398Z,987.79
2023-01-17T11:35:13.858Z,987.76
2023-01-17T11:36:13.235Z,987.79
2023-01-17T11:37:13.659Z,987.80
2023-01-17T11:38:13.800Z,987.85
2023-01-17T11:39:14.040Z,987.87
2023-01-17T11:40:13.198Z,987.89
2023-01-17T11:41:13.455Z,987.90
2023-01-17T11:42:13.881Z,987.91
2023-01-17T11:43:14.258Z,987.86
2023-01-17T11:44:13.611Z,987.89
2023-01-17T11:45:13.775Z,987.92
2023-01-17T11:46:14.009Z,987.90
2023-01-17T11:47:13.377Z,987.87
2023-01-17T11:49:13.387Z,987.83
2023-01-17T11:50:13.205Z,987.84
2023-01-17T11:51:38.970Z,987.83
2023-01-17T11:52:13.397Z,987.79
2023-01-17T11:53:13.642Z,987.82
2023-01-17T11:54:48.336Z,987.79
2023-01-17T11:55:13.242Z,987.80
2023-01-17T11:56:13.311Z,987.79
2023-01-17T11:57:33.665Z,987.76
2023-01-17T11:58:13.595Z,987.77
2023-01-17T11:59:13.797Z,987.75
2023-01-17T12:00:15.174Z,987.73
2023-01-17T12:01:13.433Z,987.73
2023-01-17T12:02:13.543Z,987.73
2023-01-17T12:03:13.589Z,987.73
2023-01-17T12:04:13.504Z,987.74
2023-01-17T12:05:13.641Z,987.72
2023-01-17T12:06:13.691Z,987.71
2023-01-17T12:07:18.759Z,987.65
2023-01-17T12:08:14.227Z,987.65
2023-01-17T12:10:14.014Z,987.67
2023-01-17T12:11:13.213Z,987.68
2023-01-17T12:12:13.488Z,987.66
2023-01-17T12:13:13.659Z,987.66
2023-01-17T12:14:14.309Z,987.64
2023-01-17T12:15:13.556Z,987.64
2023-01-17T12:16:13.657Z,987.60
2023-01-17T12:17:13.627Z,987.60
2023-01-17T12:18:13.520Z,987.60
2023-01-17T12:19:13.523Z,987.61
2023-01-17T12:20:13.592Z,987.58
2023-01-17T12:21:13.747Z,987.56
2023-01-17T12:22:13.723Z,987.53
2023-01-17T12:23:13.667Z,987.49
2023-01-17T12:24:13.917Z,987.48
2023-01-17T12:25:13.010Z,987.51
2023-01-17T12:26:13.015Z,987.52
2023-01-17T12:27:13.024Z,987.49
2023-01-17T12:28:12.995Z,987.47
2023-01-17T12:29:13.286Z,987.48
2023-01-17T12:30:13.195Z,987.46
2023-01-17T12:31:13.441Z,987.46
2023-01-17T12:32:13.707Z,987.45
2023-01-17T12:33:14.062Z,987.48